sensor_id;sensor_type;location;lat;lon;timestamp;P1;durP1;ratioP1;P2;durP2;ratioP2
26838;SDS011;40088;51.214;6.786;2023-09-12T00:01:44;33.58;;;24.92;;
26838;SDS011;40088;51.214;6.786;2023-09-12T00:11:45;49.33;;;39.08;;
26838;SDS011;40088;51.214;6.786;2023-09-12T00:21:45;38.92;;;30.17;;
26838;SDS011;40088;51.214;6.786;2023-09-12T00:31:45;42.63;;;35.30;;
26838;SDS011;40088;51.214;6.786;2023-09-12T00:41:46;43.97;;;33.00;;
26838;SDS011;40088;51.214;6.786;2023-09-12T00:51:47;52.63;;;37.90;;
26838;SDS011;40088;51.214;6.786;2023-09-12T01:01:49;52.97;;;38.60;;
26838;SDS011;40088;51.214;6.786;2023-09-12T01:11:50;56.75;;;42.13;;
26838;SDS011;40088;51.214;6.786;2023-09-12T01:22:10;34.70;;;25.42;;
26838;SDS011;40088;51.214;6.786;2023-09-12T01:32:37;51.25;;;39.85;;
26838;SDS011;40088;51.214;6.786;2023-09-12T01:42:38;52.85;;;41.42;;
26838;SDS011;40088;51.214;6.786;2023-09-12T01:52:48;40.78;;;31.77;;
26838;SDS011;40088;51.214;6.786;2023-09-12T02:02:49;59.58;;;46.03;;
26838;SDS011;40088;51.214;6.786;2023-09-12T02:12:50;54.45;;;42.65;;
26838;SDS011;40088;51.214;6.786;2023-09-12T02:22:50;61.28;;;43.15;;
26838;SDS011;40088;51.214;6.786;2023-09-12T02:32:50;65.57;;;50.30;;
26838;SDS011;40088;51.214;6.786;2023-09-12T02:42:50;44.38;;;34.20;;
26838;SDS011;40088;51.214;6.786;2023-09-12T02:52:51;58.87;;;45.73;;
26838;SDS011;40088;51.214;6.786;2023-09-12T03:02:51;49.03;;;38.45;;
26838;SDS011;40088;51.214;6.786;2023-09-12T03:12:52;50.45;;;37.80;;
26838;SDS011;40088;51.214;6.786;2023-09-12T03:22:52;60.55;;;45.40;;
26838;SDS011;40088;51.214;6.786;2023-09-12T03:32:52;50.20;;;37.47;;
26838;SDS011;40088;51.214;6.786;2023-09-12T03:42:53;58.13;;;43.08;;
26838;SDS011;40088;51.214;6.786;2023-09-12T03:52:53;56.20;;;40.25;;
26838;SDS011;40088;51.214;6.786;2023-09-12T04:02:54;53.45;;;39.63;;
26838;SDS011;40088;51.214;6.786;2023-09-12T04:12:54;59.13;;;42.67;;
26838;SDS011;40088;51.214;6.786;2023-09-12T04:22:54;46.45;;;33.50;;
26838;SDS011;40088;51.214;6.786;2023-09-12T04:32:55;46.60;;;31.90;;
26838;SDS011;40088;51.214;6.786;2023-09-12T04:42:55;53.90;;;38.03;;
26838;SDS011;40088;51.214;6.786;2023-09-12T04:52:55;62.85;;;45.58;;
26838;SDS011;40088;51.214;6.786;2023-09-12T05:02:55;61.13;;;42.30;;
26838;SDS011;40088;51.214;6.786;2023-09-12T05:12:56;51.60;;;37.88;;
26838;SDS011;40088;51.214;6.786;2023-09-12T05:22:56;61.55;;;41.33;;
26838;SDS011;40088;51.214;6.786;2023-09-12T05:32:56;64.15;;;42.28;;
26838;SDS011;40088;51.214;6.786;2023-09-12T05:42:57;62.28;;;43.90;;
26838;SDS011;40088;51.214;6.786;2023-09-12T05:52:57;47.33;;;33.80;;
26838;SDS011;40088;51.214;6.786;2023-09-12T06:02:57;23.23;;;16.55;;
26838;SDS011;40088;51.214;6.786;2023-09-12T06:12:58;33.80;;;21.60;;
26838;SDS011;40088;51.214;6.786;2023-09-12T06:22:58;25.30;;;17.85;;
26838;SDS011;40088;51.214;6.786;2023-09-12T06:32:59;42.22;;;27.40;;
26838;SDS011;40088;51.214;6.786;2023-09-12T06:42:59;27.38;;;16.48;;
26838;SDS011;40088;51.214;6.786;2023-09-12T06:53:00;33.63;;;19.63;;
26838;SDS011;40088;51.214;6.786;2023-09-12T07:03:00;27.23;;;18.45;;
26838;SDS011;40088;51.214;6.786;2023-09-12T07:13:00;21.15;;;14.00;;
26838;SDS011;40088;51.214;6.786;2023-09-12T07:23:00;24.65;;;16.23;;
26838;SDS011;40088;51.214;6.786;2023-09-12T07:33:02;19.58;;;12.23;;
26838;SDS011;40088;51.214;6.786;2023-09-12T07:43:04;24.20;;;16.13;;
26838;SDS011;40088;51.214;6.786;2023-09-12T07:53:05;20.58;;;12.73;;
26838;SDS011;40088;51.214;6.786;2023-09-12T08:03:05;33.95;;;23.58;;
26838;SDS011;40088;51.214;6.786;2023-09-12T08:13:05;17.45;;;11.90;;
26838;SDS011;40088;51.214;6.786;2023-09-12T08:23:06;16.73;;;11.07;;
26838;SDS011;40088;51.214;6.786;2023-09-12T08:33:06;13.00;;;7.22;;
26838;SDS011;40088;51.214;6.786;2023-09-12T08:43:07;17.77;;;9.50;;
26838;SDS011;40088;51.214;6.786;2023-09-12T08:53:07;18.55;;;11.43;;
26838;SDS011;40088;51.214;6.786;2023-09-12T09:03:07;11.00;;;5.88;;
26838;SDS011;40088;51.214;6.786;2023-09-12T09:13:08;9.47;;;5.17;;
26838;SDS011;40088;51.214;6.786;2023-09-12T09:23:10;6.05;;;4.32;;
26838;SDS011;40088;51.214;6.786;2023-09-12T09:33:10;12.27;;;9.10;;
26838;SDS011;40088;51.214;6.786;2023-09-12T09:43:11;10.85;;;5.28;;
26838;SDS011;40088;51.214;6.786;2023-09-12T09:53:14;11.90;;;10.70;;
26838;SDS011;40088;51.214;6.786;2023-09-12T10:03:14;5.95;;;4.70;;
26838;SDS011;40088;51.214;6.786;2023-09-12T10:13:22;45.70;;;40.92;;
26838;SDS011;40088;51.214;6.786;2023-09-12T10:33:37;50.15;;;44.72;;
26838;SDS011;40088;51.214;6.786;2023-09-12T10:43:38;15.82;;;14.23;;
26838;SDS011;40088;51.214;6.786;2023-09-12T10:53:44;18.90;;;17.00;;
26838;SDS011;40088;51.214;6.786;2023-09-12T11:03:49;27.90;;;25.00;;
26838;SDS011;40088;51.214;6.786;2023-09-12T11:14:03;39.15;;;35.25;;
26838;SDS011;40088;51.214;6.786;2023-09-12T11:24:04;44.85;;;40.58;;
26838;SDS011;40088;51.214;6.786;2023-09-12T11:34:05;25.37;;;22.93;;
26838;SDS011;40088;51.214;6.786;2023-09-12T11:44:08;43.03;;;38.88;;
26838;SDS011;40088;51.214;6.786;2023-09-12T11:54:09;33.35;;;29.95;;
26838;SDS011;40088;51.214;6.786;2023-09-12T12:04:09;32.90;;;29.60;;
26838;SDS011;40088;51.214;6.786;2023-09-12T12:14:11;32.47;;;29.37;;
26838;SDS011;40088;51.214;6.786;2023-09-12T12:24:15;35.67;;;31.98;;
26838;SDS011;40088;51.214;6.786;2023-09-12T12:34:15;37.63;;;34.00;;
26838;SDS011;40088;51.214;6.786;2023-09-12T12:44:21;42.22;;;37.88;;
26838;SDS011;40088;51.214;6.786;2023-09-12T12:54:22;32.22;;;28.98;;
26838;SDS011;40088;51.214;6.786;2023-09-12T13:04:23;25.15;;;22.55;;
26838;SDS011;40088;51.214;6.786;2023-09-12T13:14:24;46.22;;;41.55;;
26838;SDS011;40088;51.214;6.786;2023-09-12T13:24:30;37.13;;;33.15;;
26838;SDS011;40088;51.214;6.786;2023-09-12T13:34:30;31.58;;;28.25;;
26838;SDS011;40088;51.214;6.786;2023-09-12T13:44:31;44.53;;;39.67;;
26838;SDS011;40088;51.214;6.786;2023-09-12T13:54:31;53.13;;;47.75;;
26838;SDS011;40088;51.214;6.786;2023-09-12T14:04:31;49.53;;;44.45;;
26838;SDS011;40088;51.214;6.786;2023-09-12T14:14:32;43.15;;;38.67;;
26838;SDS011;40088;51.214;6.786;2023-09-12T14:24:32;34.17;;;30.70;;
26838;SDS011;40088;51.214;6.786;2023-09-12T14:34:32;30.95;;;27.77;;
26838;SDS011;40088;51.214;6.786;2023-09-12T14:44:33;30.35;;;27.13;;
26838;SDS011;40088;51.214;6.786;2023-09-12T14:54:33;47.80;;;43.10;;
26838;SDS011;40088;51.214;6.786;2023-09-12T15:04:33;32.17;;;28.80;;
26838;SDS011;40088;51.214;6.786;2023-09-12T15:14:34;57.45;;;51.58;;
26838;SDS011;40088;51.214;6.786;2023-09-12T15:24:34;61.30;;;55.00;;
26838;SDS011;40088;51.214;6.786;2023-09-12T15:34:35;49.78;;;44.65;;
26838;SDS011;40088;51.214;6.786;2023-09-12T15:44:35;36.05;;;32.30;;
26838;SDS011;40088;51.214;6.786;2023-09-12T15:54:35;50.67;;;45.65;;
26838;SDS011;40088;51.214;6.786;2023-09-12T16:04:36;64.90;;;58.20;;
26838;SDS011;40088;51.214;6.786;2023-09-12T16:14:36;43.47;;;38.95;;
26838;SDS011;40088;51.214;6.786;2023-09-12T16:24:36;41.08;;;36.88;;
26838;SDS011;40088;51.214;6.786;2023-09-12T16:34:37;46.30;;;41.55;;
26838;SDS011;40088;51.214;6.786;2023-09-12T16:44:37;56.65;;;51.00;;
26838;SDS011;40088;51.214;6.786;2023-09-12T16:54:37;78.40;;;70.68;;
26838;SDS011;40088;51.214;6.786;2023-09-12T17:04:39;45.88;;;41.13;;
26838;SDS011;40088;51.214;6.786;2023-09-12T17:14:40;39.60;;;35.60;;
26838;SDS011;40088;51.214;6.786;2023-09-12T17:24:40;35.83;;;32.10;;
26838;SDS011;40088;51.214;6.786;2023-09-12T17:34:43;39.50;;;35.60;;
26838;SDS011;40088;51.214;6.786;2023-09-12T17:44:46;59.28;;;53.20;;
26838;SDS011;40088;51.214;6.786;2023-09-12T17:54:47;78.03;;;70.13;;
26838;SDS011;40088;51.214;6.786;2023-09-12T18:04:47;54.75;;;49.17;;
26838;SDS011;40088;51.214;6.786;2023-09-12T18:14:48;43.53;;;39.17;;
26838;SDS011;40088;51.214;6.786;2023-09-12T18:24:48;37.58;;;33.58;;
26838;SDS011;40088;51.214;6.786;2023-09-12T18:34:48;50.33;;;44.97;;
26838;SDS011;40088;51.214;6.786;2023-09-12T18:44:49;37.28;;;33.17;;
26838;SDS011;40088;51.214;6.786;2023-09-12T18:54:49;49.55;;;44.25;;
26838;SDS011;40088;51.214;6.786;2023-09-12T19:04:49;49.42;;;44.25;;
26838;SDS011;40088;51.214;6.786;2023-09-12T19:14:50;53.42;;;47.88;;
26838;SDS011;40088;51.214;6.786;2023-09-12T19:24:50;49.05;;;43.88;;
26838;SDS011;40088;51.214;6.786;2023-09-12T19:34:50;32.80;;;28.77;;
26838;SDS011;40088;51.214;6.786;2023-09-12T19:44:51;39.13;;;34.90;;
26838;SDS011;40088;51.214;6.786;2023-09-12T19:54:52;25.80;;;22.67;;
26838;SDS011;40088;51.214;6.786;2023-09-12T20:04:52;25.75;;;21.38;;
26838;SDS011;40088;51.214;6.786;2023-09-12T20:14:54;40.45;;;33.75;;
26838;SDS011;40088;51.214;6.786;2023-09-12T20:24:55;45.42;;;37.83;;
26838;SDS011;40088;51.214;6.786;2023-09-12T20:34:55;21.83;;;16.73;;
26838;SDS011;40088;51.214;6.786;2023-09-12T20:44:57;20.57;;;16.40;;
26838;SDS011;40088;51.214;6.786;2023-09-12T20:54:58;17.13;;;14.23;;
26838;SDS011;40088;51.214;6.786;2023-09-12T21:04:58;18.75;;;14.23;;
26838;SDS011;40088;51.214;6.786;2023-09-12T21:14:58;16.95;;;12.70;;
26838;SDS011;40088;51.214;6.786;2023-09-12T21:24:59;27.43;;;19.73;;
26838;SDS011;40088;51.214;6.786;2023-09-12T21:35:10;24.35;;;17.95;;
26838;SDS011;40088;51.214;6.786;2023-09-12T21:45:15;18.90;;;14.40;;
26838;SDS011;40088;51.214;6.786;2023-09-12T21:55:15;29.55;;;21.20;;
26838;SDS011;40088;51.214;6.786;2023-09-12T22:05:15;17.58;;;12.73;;
26838;SDS011;40088;51.214;6.786;2023-09-12T22:15:16;12.38;;;8.80;;
26838;SDS011;40088;51.214;6.786;2023-09-12T22:25:17;9.80;;;7.72;;
26838;SDS011;40088;51.214;6.786;2023-09-12T22:35:17;7.15;;;5.63;;
26838;SDS011;40088;51.214;6.786;2023-09-12T22:45:17;7.75;;;6.55;;
26838;SDS011;40088;51.214;6.786;2023-09-12T22:55:18;7.95;;;6.50;;
26838;SDS011;40088;51.214;6.786;2023-09-12T23:05:18;8.10;;;6.35;;
26838;SDS011;40088;51.214;6.786;2023-09-12T23:15:19;7.20;;;6.50;;
26838;SDS011;40088;51.214;6.786;2023-09-12T23:25:19;10.02;;;7.60;;
26838;SDS011;40088;51.214;6.786;2023-09-12T23:35:19;12.52;;;7.70;;
26838;SDS011;40088;51.214;6.786;2023-09-12T23:45:21;9.93;;;8.82;;
26838;SDS011;40088;51.214;6.786;2023-09-12T23:55:21;12.48;;;8.65;;
